Current Conditions

Updated: 21-Jan-2017 1:35 PM  
Summary / Temperature Wind Rain






Feels like: 57°F

1-hour difference
1.4°F 1.4°F warmer than last hour.

24-hour difference
6.7°F6.7°F warmer than yesterday at this time.

  Today Yesterday
High: 56.7°F
1:29 PM
51.3°F
11:05 AM
Low: 40.3°F
4:50 AM
44.7°F
11:58 PM
Calm SSE
0.0
Gust:  0.0 mph
0 Beaufort - Calm

Today: 2.3 - 9:37 AM
Month: 9.0 mph - Jan 9
Rain Today: 0.02 in
Current Rate (/hr): 0.000 in
Max Rate (/hr):
Rain Yesterday: 0.57 in
Storm Rain: 1.07 in
This Month: 3.43 in
Season Total: 7.28 in
Last Rain Event: Today
Humidity / Barometer Sun / Moon
Humidity: 66 Decreased 7.0% in the last hour.
Dew Point: 45.5°F Decreased 1.4°F in the last hour.
Barometer: 29.962 inHg  
Baro Trend: Steady
Sunrise: 7:03 AM
Sunset: 5:10 PM
Moonrise: 1:33 AM
Moonset: 12:33 PM
Sky Conditions UV Index
Summary: Clear
Visibility: 10 miles
Clouds: None
KPTV - 12:56 PM PST
Current: 4.0  Moderate 
Saturday: 2.8  Low 
Sunday: 2.8  Low 
Air Quality Fire Danger
 Good 
Ozone 42 ppb
PM 2.5 1 μg/m3
1:30 PM PST
Current: 5  Low 

Local Alerts Local Forecast
Local NWS Alerts
Today

Rain
Showers
High 54
Tonight

Rain

Low 48
Sun

Rain

High 61
Sun night

Rain

Low 45
Mon

Rain
Showers
High 52
Mon night

Rain
Showers
Low 37
Tue

Rain
Showers
High 54

Local Radar Local Satellite Neighborhood Cam Sky Cam
Local Radar Local Satellite Neighborhood Cam Sky Cam


Nearby Personal Stations

Weather Underground PWS KCAPORTE11     Weather Underground PWS KCAPORTE8

Nearby Airport Stations

KPTV - Porterville, California, USA
Distance from station: SSW 4mi, 7km
Updated: Sat, 21-Jan-2017 12:56pm PST
Clear
Clear
 Wind from ESE
Wind: ESE 6 mph , 9 km/h
Temperature: 54°F , 12°C
Dew Point: 43°F , 6°C
Humidity: 67%
Barometer: 29.97 inHg , 1014.9 hPa
Clouds: Clear
Visibility: 10 miles , 16 km
2017/01/21 20:56 KPTV 212056Z AUTO 12005KT 10SM CLR 12/06 A2997 RMK AO2 SLP163 T01220056 50007
KVIS - Visalia, California, USA
Distance from station: NW 27mi, 43km
Updated: Sat, 21-Jan-2017 12:56pm PST
Clear
Clear
 Wind from SE
Wind: SE 10 mph , 17 km/h
Temperature: 55°F , 13°C
Dew Point: 43°F , 6°C
Humidity: 63%
Barometer: 29.95 inHg , 1014.2 hPa
Clouds: Clear
Visibility: 10 miles , 16 km
2017/01/21 20:56 KVIS 212056Z AUTO 14009KT 10SM CLR 13/06 A2995 RMK AO2 SLPNO 6//// T01280061

Metar display script from Saratoga-Weather.org



Visitor Map